Time,TemperatureF,DewpointF,PressureIn,WindDirection,WindDirectionDegrees,WindSpeedMPH,WindSpeedGustMPH,Humidity,HourlyPrecipIn,Conditions,Clouds,dailyrainin,SoftwareType,DateUTC
2013-04-23 00:04:00,42.8,30.0,30.36,NE,51,0.0,-999.0,60,-99.99,,,0.00,weatherlink.com 1.10,2013-04-23 04:04:00,
2013-04-23 00:19:00,42.6,29.0,30.37,NE,51,0.0,-999.0,60,-99.99,,,0.00,weatherlink.com 1.10,2013-04-23 04:19:00,
2013-04-23 00:34:00,42.5,29.0,30.37,NE,51,0.0,-999.0,60,-99.99,,,0.00,weatherlink.com 1.10,2013-04-23 04:34:00,
2013-04-23 00:49:00,42.4,29.0,30.37,NE,51,0.0,-999.0,60,-99.99,,,0.00,weatherlink.com 1.10,2013-04-23 04:49:00,
2013-04-23 01:04:00,42.3,29.0,30.37,NE,51,0.0,-999.0,60,-99.99,,,0.00,weatherlink.com 1.10,2013-04-23 05:04:00,
2013-04-23 01:19:00,42.7,30.0,30.37,NE,51,0.0,-999.0,60,-99.99,,,0.00,weatherlink.com 1.10,2013-04-23 05:19:00,
2013-04-23 01:34:00,42.5,30.0,30.37,NE,43,0.0,-999.0,62,-99.99,,,0.00,weatherlink.com 1.10,2013-04-23 05:34:00,
2013-04-23 01:49:00,42.0,30.0,30.36,NE,43,0.0,-999.0,62,-99.99,,,0.00,weatherlink.com 1.10,2013-04-23 05:49:00,
2013-04-23 02:04:00,41.8,30.0,30.36,NE,43,0.0,-999.0,64,-99.99,,,0.00,weatherlink.com 1.10,2013-04-23 06:04:00,
2013-04-23 02:19:00,41.3,30.0,30.36,NE,43,0.0,-999.0,64,-99.99,,,0.00,weatherlink.com 1.10,2013-04-23 06:19:00,
2013-04-23 02:34:00,41.9,30.0,30.36,NE,43,0.0,-999.0,64,-99.99,,,0.00,weatherlink.com 1.10,2013-04-23 06:34:00,
2013-04-23 02:50:00,41.3,31.0,30.35,NE,43,0.0,-999.0,66,-99.99,,,0.00,weatherlink.com 1.10,2013-04-23 06:50:00,
2013-04-23 03:05:00,41.8,32.0,30.35,NE,43,0.0,-999.0,67,-99.99,,,0.00,weatherlink.com 1.10,2013-04-23 07:05:00,
2013-04-23 03:20:00,42.1,32.0,30.35,NE,43,0.0,-999.0,68,-99.99,,,0.00,weatherlink.com 1.10,2013-04-23 07:20:00,
2013-04-23 03:35:00,42.2,32.0,30.35,NE,43,0.0,-999.0,68,-99.99,,,0.00,weatherlink.com 1.10,2013-04-23 07:35:00,
2013-04-23 03:50:00,44.3,34.0,30.34,NNW,338,0.0,-999.0,66,-99.99,,,0.00,weatherlink.com 1.10,2013-04-23 07:50:00,
2013-04-23 04:05:00,45.0,34.0,30.34,North,11,0.0,-999.0,65,-99.99,,,0.00,weatherlink.com 1.10,2013-04-23 08:05:00,
2013-04-23 04:20:00,44.5,33.0,30.34,ENE,63,0.0,-999.0,65,-99.99,,,0.00,weatherlink.com 1.10,2013-04-23 08:20:00,
2013-04-23 04:35:00,43.3,32.0,30.34,NW,322,0.0,-999.0,65,-99.99,,,0.00,weatherlink.com 1.10,2013-04-23 08:35:00,
2013-04-23 04:50:00,43.0,31.0,30.34,NW,323,0.0,-999.0,64,-99.99,,,0.00,weatherlink.com 1.10,2013-04-23 08:50:00,
2013-04-23 05:05:00,42.2,31.0,30.34,NW,323,0.0,-999.0,64,-99.99,,,0.00,weatherlink.com 1.10,2013-04-23 09:05:00,
2013-04-23 05:20:00,42.9,31.0,30.33,WNW,300,1.0,-999.0,63,-99.99,,,0.00,weatherlink.com 1.10,2013-04-23 09:20:00,
2013-04-23 05:36:00,43.2,31.0,30.33,WNW,300,0.0,-999.0,62,-99.99,,,0.00,weatherlink.com 1.10,2013-04-23 09:36:00,
2013-04-23 05:51:00,43.6,31.0,30.33,East,93,0.0,-999.0,62,-99.99,,,0.00,weatherlink.com 1.10,2013-04-23 09:51:00,
2013-04-23 06:06:00,43.9,31.0,30.33,NE,50,0.0,-999.0,62,-99.99,,,0.00,weatherlink.com 1.10,2013-04-23 10:06:00,
2013-04-23 06:21:00,44.0,32.0,30.34,NNE,19,0.0,-999.0,63,-99.99,,,0.00,weatherlink.com 1.10,2013-04-23 10:21:00,
2013-04-23 06:36:00,44.6,33.0,30.34,NNE,24,0.0,-999.0,64,-99.99,,,0.00,weatherlink.com 1.10,2013-04-23 10:36:00,
2013-04-23 06:51:00,44.6,34.0,30.34,NNE,24,0.0,-999.0,66,-99.99,,,0.00,weatherlink.com 1.10,2013-04-23 10:51:00,
2013-04-23 07:06:00,44.8,33.0,30.34,NNE,24,0.0,-999.0,64,-99.99,,,0.00,weatherlink.com 1.10,2013-04-23 11:06:00,
2013-04-23 07:21:00,45.1,34.0,30.34,NW,313,0.0,-999.0,65,-99.99,,,0.00,weatherlink.com 1.10,2013-04-23 11:21:00,
2013-04-23 07:36:00,45.7,34.0,30.34,NW,319,0.0,-999.0,65,-99.99,,,0.00,weatherlink.com 1.10,2013-04-23 11:36:00,
2013-04-23 07:51:00,46.5,36.0,30.35,NW,323,0.0,-999.0,66,-99.99,,,0.00,weatherlink.com 1.10,2013-04-23 11:51:00,
2013-04-23 08:06:00,46.9,35.0,30.35,NW,323,0.0,-999.0,64,-99.99,,,0.00,weatherlink.com 1.10,2013-04-23 12:06:00,
2013-04-23 08:21:00,47.6,36.0,30.34,NNE,26,0.0,-999.0,65,-99.99,,,0.00,weatherlink.com 1.10,2013-04-23 12:21:00,
2013-04-23 08:37:00,48.1,37.0,30.35,NNE,29,0.0,-999.0,66,-99.99,,,0.00,weatherlink.com 1.10,2013-04-23 12:37:00,
2013-04-23 08:52:00,48.8,37.0,30.36,ENE,70,1.0,-999.0,65,-99.99,,,0.00,weatherlink.com 1.10,2013-04-23 12:52:00,
2013-04-23 09:07:00,49.4,38.0,30.36,ENE,74,0.0,-999.0,65,-99.99,,,0.00,weatherlink.com 1.10,2013-04-23 13:07:00,
2013-04-23 09:22:00,50.3,38.0,30.36,SE,129,1.0,-999.0,63,-99.99,,,0.00,weatherlink.com 1.10,2013-04-23 13:22:00,
2013-04-23 09:37:00,50.6,37.0,30.36,ENE,58,0.0,-999.0,61,-99.99,,,0.00,weatherlink.com 1.10,2013-04-23 13:37:00,
2013-04-23 09:52:00,50.9,37.0,30.36,NE,40,0.0,-999.0,60,-99.99,,,0.00,weatherlink.com 1.10,2013-04-23 13:52:00,
2013-04-23 10:07:00,51.4,37.0,30.36,ENE,65,1.0,-999.0,59,-99.99,,,0.00,weatherlink.com 1.10,2013-04-23 14:07:00,
2013-04-23 10:22:00,51.7,38.0,30.36,NNE,15,2.0,-999.0,59,-99.99,,,0.00,weatherlink.com 1.10,2013-04-23 14:22:00,
2013-04-23 10:37:00,53.6,39.0,30.37,ENE,67,1.0,-999.0,58,-99.99,,,0.00,weatherlink.com 1.10,2013-04-23 14:37:00,
2013-04-23 10:52:00,54.5,40.0,30.35,ENE,69,2.0,-999.0,58,-99.99,,,0.00,weatherlink.com 1.10,2013-04-23 14:52:00,
2013-04-23 11:08:00,55.8,41.0,30.34,ENE,57,2.0,-999.0,57,-99.99,,,0.00,weatherlink.com 1.10,2013-04-23 15:08:00,
2013-04-23 11:23:00,57.7,41.0,30.34,NNW,340,0.0,-999.0,55,-99.99,,,0.00,weatherlink.com 1.10,2013-04-23 15:23:00,
2013-04-23 11:38:00,58.6,41.0,30.35,ENE,61,0.0,-999.0,52,-99.99,,,0.00,weatherlink.com 1.10,2013-04-23 15:38:00,
2013-04-23 11:53:00,60.5,43.0,30.34,North,353,0.0,-999.0,53,-99.99,,,0.00,weatherlink.com 1.10,2013-04-23 15:53:00,
2013-04-23 12:08:00,60.0,42.0,30.34,NNE,26,0.0,-999.0,51,-99.99,,,0.00,weatherlink.com 1.10,2013-04-23 16:08:00,
2013-04-23 12:23:00,61.0,43.0,30.32,East,98,1.0,-999.0,52,-99.99,,,0.00,weatherlink.com 1.10,2013-04-23 16:23:00,
2013-04-23 12:38:00,61.2,43.0,30.31,WNW,303,1.0,-999.0,51,-99.99,,,0.00,weatherlink.com 1.10,2013-04-23 16:38:00,
2013-04-23 12:53:00,62.9,43.0,30.30,ENE,65,2.0,-999.0,49,-99.99,,,0.00,weatherlink.com 1.10,2013-04-23 16:53:00,
2013-04-23 13:08:00,63.9,45.0,30.29,ENE,59,5.0,-999.0,51,-99.99,,,0.00,weatherlink.com 1.10,2013-04-23 17:08:00,
2013-04-23 13:24:00,64.1,45.0,30.28,NE,53,2.0,-999.0,51,-99.99,,,0.00,weatherlink.com 1.10,2013-04-23 17:24:00,
2013-04-23 13:39:00,65.2,44.0,30.28,SW,217,2.0,-999.0,46,-99.99,,,0.00,weatherlink.com 1.10,2013-04-23 17:39:00,
2013-04-23 13:54:00,66.2,44.0,30.27,WNW,298,0.0,-999.0,45,-99.99,,,0.00,weatherlink.com 1.10,2013-04-23 17:54:00,
2013-04-23 14:09:00,64.8,43.0,30.26,West,273,4.0,-999.0,45,-99.99,,,0.00,weatherlink.com 1.10,2013-04-23 18:09:00,
2013-04-23 14:24:00,65.8,46.0,30.25,East,93,1.0,-999.0,49,-99.99,,,0.00,weatherlink.com 1.10,2013-04-23 18:24:00,
2013-04-23 14:39:00,66.1,45.0,30.25,ENE,65,0.0,-999.0,47,-99.99,,,0.00,weatherlink.com 1.10,2013-04-23 18:39:00,
2013-04-23 14:54:00,67.1,43.0,30.24,SE,129,1.0,-999.0,42,-99.99,,,0.00,weatherlink.com 1.10,2013-04-23 18:54:00,
2013-04-23 15:09:00,67.0,45.0,30.23,ENE,62,7.0,-999.0,46,-99.99,,,0.00,weatherlink.com 1.10,2013-04-23 19:09:00,
2013-04-23 15:24:00,67.2,46.0,30.22,SSE,161,1.0,-999.0,47,-99.99,,,0.00,weatherlink.com 1.10,2013-04-23 19:24:00,
2013-04-23 15:39:00,67.9,46.0,30.23,East,81,0.0,-999.0,45,-99.99,,,0.00,weatherlink.com 1.10,2013-04-23 19:39:00,
2013-04-23 15:55:00,68.3,46.0,30.23,WSW,255,0.0,-999.0,45,-99.99,,,0.00,weatherlink.com 1.10,2013-04-23 19:55:00,
2013-04-23 16:10:00,68.3,45.0,30.22,ENE,59,1.0,-999.0,43,-99.99,,,0.00,weatherlink.com 1.10,2013-04-23 20:10:00,
2013-04-23 16:25:00,69.1,46.0,30.21,SE,139,1.0,-999.0,43,-99.99,,,0.00,weatherlink.com 1.10,2013-04-23 20:25:00,
2013-04-23 16:40:00,69.9,46.0,30.20,SSE,147,0.0,-999.0,43,-99.99,,,0.00,weatherlink.com 1.10,2013-04-23 20:40:00,
2013-04-23 16:55:00,69.5,45.0,30.19,South,184,0.0,-999.0,41,-99.99,,,0.00,weatherlink.com 1.10,2013-04-23 20:55:00,
2013-04-23 17:10:00,69.0,45.0,30.20,South,188,1.0,-999.0,43,-99.99,,,0.00,weatherlink.com 1.10,2013-04-23 21:10:00,
2013-04-23 17:25:00,68.1,45.0,30.19,ESE,122,1.0,-999.0,43,-99.99,,,0.00,weatherlink.com 1.10,2013-04-23 21:25:00,
2013-04-23 17:40:00,67.9,46.0,30.19,SSE,165,1.0,-999.0,46,-99.99,,,0.00,weatherlink.com 1.10,2013-04-23 21:40:00,
2013-04-23 17:55:00,68.2,45.0,30.19,SSE,154,1.0,-999.0,43,-99.99,,,0.00,weatherlink.com 1.10,2013-04-23 21:55:00,
2013-04-23 18:10:00,67.5,45.0,30.19,SE,140,2.0,-999.0,44,-99.99,,,0.00,weatherlink.com 1.10,2013-04-23 22:10:00,
2013-04-23 18:26:00,67.6,45.0,30.19,SSE,164,0.0,-999.0,44,-99.99,,,0.00,weatherlink.com 1.10,2013-04-23 22:26:00,
2013-04-23 18:41:00,67.4,46.0,30.19,SSE,147,0.0,-999.0,46,-99.99,,,0.00,weatherlink.com 1.10,2013-04-23 22:41:00,
2013-04-23 18:56:00,66.1,44.0,30.19,SSE,155,0.0,-999.0,45,-99.99,,,0.00,weatherlink.com 1.10,2013-04-23 22:56:00,
2013-04-23 19:11:00,64.2,45.0,30.19,SSE,167,0.0,-999.0,50,-99.99,,,0.00,weatherlink.com 1.10,2013-04-23 23:11:00,
2013-04-23 19:26:00,63.2,45.0,30.19,South,171,0.0,-999.0,52,-99.99,,,0.00,weatherlink.com 1.10,2013-04-23 23:26:00,
2013-04-23 19:41:00,62.5,45.0,30.20,SSE,165,0.0,-999.0,54,-99.99,,,0.00,weatherlink.com 1.10,2013-04-23 23:41:00,
2013-04-23 19:56:00,61.2,46.0,30.20,NNW,334,0.0,-999.0,57,-99.99,,,0.00,weatherlink.com 1.10,2013-04-23 23:56:00,
2013-04-23 20:11:00,60.8,46.0,30.19,NNW,338,0.0,-999.0,58,-99.99,,,0.00,weatherlink.com 1.10,2013-04-24 00:11:00,
2013-04-23 20:26:00,60.9,47.0,30.19,NNW,338,0.0,-999.0,60,-99.99,,,0.00,weatherlink.com 1.10,2013-04-24 00:26:00,
2013-04-23 20:41:00,59.5,45.0,30.20,NNW,338,0.0,-999.0,59,-99.99,,,0.00,weatherlink.com 1.10,2013-04-24 00:41:00,
2013-04-23 20:56:00,58.5,45.0,30.21,NNW,338,0.0,-999.0,62,-99.99,,,0.00,weatherlink.com 1.10,2013-04-24 00:56:00,
2013-04-23 21:11:00,57.7,46.0,30.21,NNW,338,0.0,-999.0,65,-99.99,,,0.00,weatherlink.com 1.10,2013-04-24 01:11:00,
2013-04-23 21:26:00,57.4,46.0,30.21,NNW,338,0.0,-999.0,65,-99.99,,,0.00,weatherlink.com 1.10,2013-04-24 01:26:00,
2013-04-23 21:41:00,56.9,46.0,30.21,NNW,338,0.0,-999.0,68,-99.99,,,0.00,weatherlink.com 1.10,2013-04-24 01:41:00,
2013-04-23 21:57:00,55.9,46.0,30.21,NNW,338,0.0,-999.0,70,-99.99,,,0.00,weatherlink.com 1.10,2013-04-24 01:57:00,
2013-04-23 22:12:00,55.6,46.0,30.21,NNW,338,0.0,-999.0,70,-99.99,,,0.00,weatherlink.com 1.10,2013-04-24 02:12:00,
2013-04-23 22:27:00,54.6,46.0,30.21,NNW,338,0.0,-999.0,72,-99.99,,,0.00,weatherlink.com 1.10,2013-04-24 02:27:00,
2013-04-23 22:42:00,53.4,45.0,30.21,NNW,338,0.0,-999.0,74,-99.99,,,0.00,weatherlink.com 1.10,2013-04-24 02:42:00,
2013-04-23 22:57:00,53.0,45.0,30.22,NNW,338,0.0,-999.0,75,-99.99,,,0.00,weatherlink.com 1.10,2013-04-24 02:57:00,
2013-04-23 23:12:00,52.2,45.0,30.21,NNW,338,0.0,-999.0,75,-99.99,,,0.00,weatherlink.com 1.10,2013-04-24 03:12:00,
2013-04-23 23:27:00,52.0,45.0,30.21,NNW,338,0.0,-999.0,76,-99.99,,,0.00,weatherlink.com 1.10,2013-04-24 03:27:00,
2013-04-23 23:57:00,50.6,44.0,30.21,NNW,338,0.0,-999.0,78,-99.99,,,0.00,weatherlink.com 1.10,2013-04-24 03:57:00,